Julian, Pennsylvania
Current Conditions -  °F | °C
As of 1:53 PM on Thursday 30 Oct 2014 (Local Time) from KUNV Reporting Station
Overcast Overcast  
Wind Chill: 50°   Ceiling: 4300
Heat Index: 50°   Visibility: 10mi
Dew Point: 34°   Wind: 6mph
Humidity: 54%   Direction: 320°NW
Pressure: 30.02"   Gusts: NA
Location:  40.86°N, 77.94°W
Report Text: KUNV 301753Z 32005KT 10SM BKN043 OVC049 10/01 A3002
Loading
Personal Weather Stations






























Interactive Weather Map
Tropical Storm Tracking
New forecast layout! Learn more

10-Day Weather Forecast

Advertisements
Track Severe Weather on mobile